createdAt,value
2019-03-26T00:01:49.367Z,15.77
2019-03-26T00:04:20.263Z,22.03
2019-03-26T00:06:51.205Z,15.23
2019-03-26T00:09:22.102Z,13.87
2019-03-26T00:11:53.029Z,18.30
2019-03-26T00:14:23.931Z,18.33
2019-03-26T00:16:54.845Z,19.90
2019-03-26T00:19:25.743Z,19.23
2019-03-26T00:21:56.673Z,23.40
2019-03-26T00:24:27.578Z,25.27
2019-03-26T00:26:58.525Z,20.70
2019-03-26T00:29:29.407Z,19.93
2019-03-26T00:32:00.356Z,24.73
2019-03-26T00:34:31.253Z,23.70
2019-03-26T00:37:03.004Z,26.00
2019-03-26T00:39:33.899Z,29.60
2019-03-26T00:42:04.825Z,26.03
2019-03-26T00:44:35.722Z,24.93
2019-03-26T00:47:06.660Z,29.43
2019-03-26T00:49:37.478Z,25.83
2019-03-26T00:52:10.033Z,26.87
2019-03-26T00:54:40.929Z,29.80
2019-03-26T00:57:11.854Z,30.17
2019-03-26T00:59:42.769Z,32.27
2019-03-26T01:02:13.698Z,32.30
2019-03-26T01:04:44.667Z,30.07
2019-03-26T01:07:16.492Z,28.53
2019-03-26T01:09:47.383Z,30.37
2019-03-26T01:12:18.322Z,30.07
2019-03-26T01:14:49.231Z,23.47
2019-03-26T01:17:20.170Z,22.23
2019-03-26T01:19:51.075Z,25.60
2019-03-26T01:22:22.912Z,22.33
2019-03-26T01:24:53.810Z,21.87
2019-03-26T01:27:24.727Z,21.43
2019-03-26T01:29:55.631Z,19.30
2019-03-26T01:32:26.551Z,27.73
2019-03-26T01:34:57.518Z,23.07
2019-03-26T01:37:30.218Z,23.53
2019-03-26T01:40:01.126Z,22.20
2019-03-26T01:42:32.053Z,22.07
2019-03-26T01:45:02.958Z,25.70
2019-03-26T01:47:33.890Z,23.60
2019-03-26T01:50:05.196Z,18.03
2019-03-26T01:52:37.015Z,22.90
2019-03-26T01:55:07.917Z,24.30
2019-03-26T01:57:38.870Z,24.57
2019-03-26T02:00:10.862Z,27.70
2019-03-26T02:02:41.794Z,22.43
2019-03-26T02:05:12.691Z,23.97
2019-03-26T02:07:44.455Z,23.93
2019-03-26T02:10:15.344Z,21.73
2019-03-26T02:12:48.580Z,19.10
2019-03-26T02:15:30.046Z,19.20
2019-03-26T02:18:01.906Z,22.80
2019-03-26T02:20:32.795Z,19.27
2019-03-26T02:23:03.940Z,21.40
2019-03-26T02:25:34.914Z,28.83
2019-03-26T02:28:05.853Z,17.90
2019-03-26T02:30:36.759Z,21.00
2019-03-26T02:33:07.767Z,22.50
2019-03-26T02:35:38.668Z,17.13
2019-03-26T02:38:09.612Z,19.80
2019-03-26T02:40:40.490Z,13.37
2019-03-26T02:43:11.405Z,14.47
2019-03-26T02:45:42.300Z,16.33
2019-03-26T02:48:13.219Z,17.30
2019-03-26T02:50:44.119Z,13.50
2019-03-26T02:53:17.287Z,17.73
2019-03-26T02:55:48.176Z,14.93
2019-03-26T02:58:19.101Z,15.83
2019-03-26T03:00:50.012Z,13.40
2019-03-26T03:03:20.924Z,14.97
2019-03-26T03:05:51.838Z,13.67
2019-03-26T03:08:23.621Z,15.00
2019-03-26T03:10:54.593Z,18.63
2019-03-26T03:13:25.584Z,18.23
2019-03-26T03:15:56.550Z,19.30
2019-03-26T03:18:27.472Z,19.47
2019-03-26T03:20:58.402Z,14.73
2019-03-26T03:23:29.337Z,12.93
2019-03-26T03:26:00.229Z,13.30
2019-03-26T03:28:31.146Z,16.77
2019-03-26T03:31:02.061Z,19.70
2019-03-26T03:33:32.981Z,12.80
2019-03-26T03:36:03.890Z,11.90
2019-03-26T03:38:34.826Z,13.97
2019-03-26T03:41:05.728Z,16.13
2019-03-26T03:43:36.657Z,16.13
2019-03-26T03:46:07.542Z,14.10
2019-03-26T03:48:38.453Z,10.23
2019-03-26T03:51:09.444Z,15.97
2019-03-26T03:53:41.177Z,15.07
2019-03-26T03:56:14.073Z,14.43
2019-03-26T03:58:47.139Z,15.23
2019-03-26T04:01:18.029Z,11.63
2019-03-26T04:03:49.023Z,18.50
2019-03-26T04:06:19.916Z,13.00
2019-03-26T04:08:50.855Z,25.70
2019-03-26T04:11:21.762Z,28.47
2019-03-26T04:13:52.699Z,17.53
2019-03-26T04:16:23.662Z,18.47
2019-03-26T04:18:54.608Z,15.03
2019-03-26T04:21:25.490Z,15.07
2019-03-26T04:23:56.460Z,14.63
2019-03-26T04:26:27.357Z,15.47
2019-03-26T04:28:58.269Z,18.17
2019-03-26T04:31:29.173Z,15.87
2019-03-26T04:34:00.103Z,18.43
2019-03-26T04:36:31.016Z,13.07
2019-03-26T04:39:04.742Z,19.43
2019-03-26T04:41:35.816Z,17.03
2019-03-26T04:44:06.752Z,19.23
2019-03-26T04:46:37.664Z,24.23
2019-03-26T04:49:08.590Z,21.27
2019-03-26T04:51:39.495Z,14.03
2019-03-26T04:54:10.593Z,21.40
2019-03-26T04:56:41.495Z,21.03
2019-03-26T04:59:12.522Z,20.63
2019-03-26T05:01:43.416Z,19.07
2019-03-26T05:04:14.353Z,16.93
2019-03-26T05:06:45.189Z,15.73
2019-03-26T05:09:16.135Z,15.03
2019-03-26T05:11:47.027Z,14.13
2019-03-26T05:14:17.957Z,17.20
2019-03-26T05:16:48.854Z,24.63
2019-03-26T05:19:19.789Z,30.73
2019-03-26T05:21:50.688Z,27.83
2019-03-26T05:24:22.411Z,20.40
2019-03-26T05:26:53.312Z,28.17
2019-03-26T05:29:24.166Z,43.20
2019-03-26T05:31:55.074Z,34.53
2019-03-26T05:34:26.043Z,31.60
2019-03-26T05:36:56.937Z,39.93
2019-03-26T05:39:28.681Z,43.20
2019-03-26T05:41:59.581Z,39.67
2019-03-26T05:44:30.587Z,24.13
2019-03-26T05:47:01.900Z,19.03
2019-03-26T05:49:32.884Z,40.13
2019-03-26T05:52:03.792Z,21.93
2019-03-26T05:54:35.554Z,19.60
2019-03-26T05:57:06.451Z,19.17
2019-03-26T05:59:37.380Z,20.07
2019-03-26T06:02:14.229Z,18.17
2019-03-26T06:04:40.973Z,23.00
2019-03-26T06:07:11.869Z,17.53
2019-03-26T06:09:43.755Z,16.77
2019-03-26T06:12:19.129Z,17.10
2019-03-26T06:14:50.066Z,14.23
2019-03-26T06:17:20.962Z,18.70
2019-03-26T06:19:51.881Z,15.27
2019-03-26T06:22:22.784Z,16.50
2019-03-26T06:24:54.530Z,13.60
2019-03-26T06:27:25.422Z,14.70
2019-03-26T06:29:56.351Z,12.90
2019-03-26T06:32:27.266Z,16.90
2019-03-26T06:34:58.108Z,19.03
2019-03-26T06:37:29.007Z,24.23
2019-03-26T06:40:01.667Z,19.00
2019-03-26T06:42:32.583Z,14.60
2019-03-26T06:45:06.481Z,10.80
2019-03-26T06:47:37.377Z,17.13
2019-03-26T06:50:11.615Z,13.73
2019-03-26T06:52:42.516Z,20.90
2019-03-26T06:55:13.691Z,14.70
2019-03-26T06:57:44.670Z,10.53
2019-03-26T07:00:18.135Z,17.67
2019-03-26T07:02:49.027Z,15.00
2019-03-26T07:05:19.965Z,16.87
2019-03-26T07:07:50.863Z,14.40
2019-03-26T07:10:25.537Z,16.93
2019-03-26T07:12:56.742Z,23.83
2019-03-26T07:15:27.677Z,18.43
2019-03-26T07:17:58.578Z,16.30
2019-03-26T07:20:29.589Z,17.57
2019-03-26T07:23:00.489Z,15.43
2019-03-26T07:25:32.262Z,16.50
2019-03-26T07:28:04.260Z,13.63
2019-03-26T07:30:40.165Z,14.50
2019-03-26T07:33:11.241Z,16.93
2019-03-26T07:35:42.333Z,19.50
2019-03-26T07:38:13.238Z,24.73
2019-03-26T07:40:45.758Z,18.93
2019-03-26T07:43:16.655Z,11.80
2019-03-26T07:45:48.385Z,18.27
2019-03-26T07:48:19.294Z,11.60
2019-03-26T07:50:50.209Z,9.00
2019-03-26T07:53:21.095Z,7.43
2019-03-26T07:55:52.070Z,15.73
2019-03-26T07:58:22.968Z,19.93
2019-03-26T08:00:53.970Z,9.17
2019-03-26T08:03:24.864Z,23.93
2019-03-26T08:05:55.789Z,27.67
2019-03-26T08:08:26.695Z,10.47
2019-03-26T08:10:58.473Z,13.37
2019-03-26T08:13:29.371Z,16.53
2019-03-26T08:16:00.298Z,17.90
2019-03-26T08:18:31.272Z,17.33
2019-03-26T08:21:02.278Z,19.27
2019-03-26T08:23:33.173Z,21.33
2019-03-26T08:26:08.447Z,14.93
2019-03-26T08:28:39.353Z,16.67
2019-03-26T08:31:10.351Z,21.40
2019-03-26T08:33:41.257Z,18.33
2019-03-26T08:36:12.182Z,18.20
2019-03-26T08:38:43.113Z,19.53
2019-03-26T08:41:15.603Z,20.63
2019-03-26T08:43:46.503Z,12.40
2019-03-26T08:46:17.430Z,13.30
2019-03-26T08:48:48.329Z,13.53
2019-03-26T08:51:19.988Z,10.87
2019-03-26T08:53:50.879Z,12.70
2019-03-26T08:56:21.832Z,24.77
2019-03-26T08:58:52.732Z,15.13
2019-03-26T09:01:23.655Z,17.03
2019-03-26T09:03:54.561Z,15.17
2019-03-26T09:06:25.472Z,12.27
2019-03-26T09:08:56.379Z,12.47
2019-03-26T09:11:29.839Z,10.40
2019-03-26T09:14:00.801Z,9.30
2019-03-26T09:16:31.758Z,11.87
2019-03-26T09:19:02.653Z,11.40
2019-03-26T09:21:33.563Z,16.07
2019-03-26T09:24:04.456Z,14.50
2019-03-26T09:26:35.402Z,19.73
2019-03-26T09:29:06.303Z,14.60
2019-03-26T09:31:37.220Z,14.53
2019-03-26T09:34:09.980Z,18.17
2019-03-26T09:36:40.731Z,18.97
2019-03-26T09:39:11.695Z,12.97
2019-03-26T09:41:44.204Z,15.80
2019-03-26T09:44:15.101Z,17.17
2019-03-26T09:46:46.027Z,20.00
2019-03-26T09:49:16.930Z,14.90
2019-03-26T09:51:47.845Z,13.20
2019-03-26T09:54:18.744Z,12.43
2019-03-26T09:56:50.499Z,17.30
2019-03-26T09:59:21.395Z,14.53
2019-03-26T10:01:52.324Z,9.27
2019-03-26T10:04:23.212Z,10.77
2019-03-26T10:06:54.132Z,9.67
2019-03-26T10:09:25.031Z,8.73
2019-03-26T10:11:56.775Z,6.13
2019-03-26T10:14:27.669Z,15.60
2019-03-26T10:16:58.626Z,8.97
2019-03-26T10:19:29.522Z,23.53
2019-03-26T10:22:00.523Z,10.70
2019-03-26T10:24:31.415Z,9.33
2019-03-26T10:27:02.363Z,14.13
2019-03-26T10:29:33.244Z,9.60
2019-03-26T10:32:04.171Z,6.73
2019-03-26T10:34:36.606Z,10.63
2019-03-26T10:37:07.660Z,9.60
2019-03-26T10:39:38.556Z,7.50
2019-03-26T10:42:11.896Z,20.30
2019-03-26T10:44:42.860Z,6.33
2019-03-26T10:47:13.806Z,10.40
2019-03-26T10:49:44.711Z,17.33
2019-03-26T10:52:15.736Z,17.60
2019-03-26T10:54:46.623Z,8.10
2019-03-26T10:57:21.725Z,2.47
2019-03-26T10:59:51.228Z,4.57
2019-03-26T11:02:22.161Z,13.50
2019-03-26T11:04:53.056Z,4.33
2019-03-26T11:07:23.975Z,3.87
2019-03-26T11:09:54.933Z,4.30
2019-03-26T11:12:26.832Z,4.63
2019-03-26T11:15:00.383Z,4.23
2019-03-26T11:17:31.264Z,18.77
2019-03-26T11:20:02.166Z,7.23
2019-03-26T11:22:33.086Z,3.50
2019-03-26T11:25:05.363Z,7.40
2019-03-26T11:27:37.208Z,9.87
2019-03-26T11:30:08.992Z,8.47
2019-03-26T11:32:39.911Z,5.07
2019-03-26T11:35:10.995Z,2.97
2019-03-26T11:37:43.325Z,6.57
2019-03-26T11:40:14.396Z,11.00
2019-03-26T11:42:46.978Z,5.03
2019-03-26T11:45:17.845Z,3.80
2019-03-26T11:47:48.771Z,2.77
2019-03-26T11:50:19.931Z,2.50
2019-03-26T11:52:50.856Z,4.07
2019-03-26T11:55:22.111Z,3.37
2019-03-26T11:57:53.823Z,3.60
2019-03-26T12:00:32.126Z,2.63
2019-03-26T12:03:03.023Z,2.67
2019-03-26T12:05:33.979Z,1.60
2019-03-26T12:08:04.899Z,1.83
2019-03-26T12:10:35.798Z,5.93
2019-03-26T12:13:07.560Z,2.50
2019-03-26T12:15:40.296Z,2.77
2019-03-26T12:18:11.237Z,2.43
2019-03-26T12:20:42.121Z,6.57
2019-03-26T12:23:13.114Z,7.73
2019-03-26T12:25:44.004Z,11.27
2019-03-26T12:28:15.043Z,10.37
2019-03-26T12:30:45.938Z,12.70
2019-03-26T12:33:16.871Z,8.30
2019-03-26T12:35:47.757Z,4.07
2019-03-26T12:38:19.586Z,6.23
2019-03-26T12:40:50.618Z,8.03
2019-03-26T12:43:22.523Z,15.83
2019-03-26T12:45:53.442Z,30.93
2019-03-26T12:48:24.377Z,12.57
2019-03-26T12:50:55.271Z,6.70
2019-03-26T12:53:26.205Z,30.97
2019-03-26T12:55:57.142Z,20.77
2019-03-26T12:58:32.025Z,15.63
2019-03-26T13:01:01.704Z,8.10
2019-03-26T13:03:34.237Z,7.23
2019-03-26T13:06:05.105Z,19.20
2019-03-26T13:08:36.025Z,15.13
2019-03-26T13:11:06.933Z,30.83
2019-03-26T13:13:38.669Z,14.27
2019-03-26T13:16:09.593Z,69.93
2019-03-26T13:18:40.512Z,41.10
2019-03-26T13:21:11.413Z,16.47
2019-03-26T13:23:42.331Z,13.17
2019-03-26T13:26:13.230Z,11.93
2019-03-26T13:28:46.997Z,4.07
2019-03-26T13:31:17.880Z,7.53
2019-03-26T13:33:48.799Z,8.37
2019-03-26T13:37:14.511Z,6.33
2019-03-26T13:39:48.413Z,12.50
2019-03-26T13:42:19.345Z,5.93
2019-03-26T13:44:52.078Z,8.57
2019-03-26T13:47:22.991Z,10.00
2019-03-26T13:49:54.020Z,6.00
2019-03-26T13:52:24.928Z,4.80
2019-03-26T13:54:55.908Z,7.83
2019-03-26T13:57:26.902Z,4.63
2019-03-26T13:59:57.829Z,5.50
2019-03-26T14:02:28.723Z,7.13
2019-03-26T14:04:59.717Z,20.53
2019-03-26T14:07:30.621Z,22.27
2019-03-26T14:10:01.578Z,37.37
2019-03-26T14:12:32.451Z,27.43
2019-03-26T14:15:04.640Z,14.77
2019-03-26T14:17:35.571Z,8.00
2019-03-26T14:20:07.191Z,5.60
2019-03-26T14:22:38.087Z,9.03
2019-03-26T14:25:09.209Z,10.60
2019-03-26T14:27:40.118Z,40.20
2019-03-26T14:30:14.290Z,18.60
2019-03-26T14:32:45.215Z,77.37
2019-03-26T14:35:16.166Z,81.17
2019-03-26T14:37:51.564Z,159.90
2019-03-26T14:40:19.763Z,167.83
2019-03-26T14:42:51.949Z,89.70
2019-03-26T14:45:26.305Z,27.20
2019-03-26T14:47:57.273Z,50.87
2019-03-26T14:50:28.243Z,31.83
2019-03-26T14:52:59.138Z,16.13
2019-03-26T14:55:30.875Z,9.03
2019-03-26T14:58:01.783Z,23.83
2019-03-26T15:00:33.551Z,10.17
2019-03-26T15:03:04.475Z,54.23
2019-03-26T15:05:35.420Z,29.23
2019-03-26T15:08:06.427Z,38.03
2019-03-26T15:10:37.372Z,39.60
2019-03-26T15:13:08.258Z,48.30
2019-03-26T15:15:40.026Z,9.60
2019-03-26T15:18:10.922Z,32.33
2019-03-26T15:20:41.854Z,45.70
2019-03-26T15:23:12.758Z,57.77
2019-03-26T15:25:43.757Z,19.17
2019-03-26T15:28:14.643Z,7.37
2019-03-26T15:30:45.709Z,4.80
2019-03-26T15:33:16.605Z,34.47
2019-03-26T15:35:47.541Z,37.53
2019-03-26T15:38:18.459Z,38.67
2019-03-26T15:40:49.404Z,23.37
2019-03-26T15:43:20.293Z,7.10
2019-03-26T15:45:53.235Z,15.00
2019-03-26T15:48:24.141Z,44.00
2019-03-26T15:50:55.077Z,23.10
2019-03-26T15:53:25.986Z,18.37
2019-03-26T15:55:56.914Z,6.60
2019-03-26T15:58:27.825Z,8.77
2019-03-26T16:00:59.802Z,38.90
2019-03-26T16:03:30.692Z,13.50
2019-03-26T16:06:01.620Z,7.70
2019-03-26T16:08:35.811Z,13.30
2019-03-26T16:11:05.421Z,7.37
2019-03-26T16:13:36.319Z,100.40
2019-03-26T16:16:07.289Z,12.27
2019-03-26T16:18:38.177Z,9.00
2019-03-26T16:21:09.104Z,16.33
2019-03-26T16:23:40.015Z,15.20
2019-03-26T16:26:10.942Z,9.37
2019-03-26T16:28:41.835Z,6.57
2019-03-26T16:31:13.628Z,5.47
2019-03-26T16:33:44.520Z,5.60
2019-03-26T16:36:15.490Z,5.43
2019-03-26T16:38:46.345Z,5.83
2019-03-26T16:41:17.260Z,6.70
2019-03-26T16:43:48.151Z,5.10
2019-03-26T16:46:21.518Z,10.30
2019-03-26T16:48:52.479Z,6.57
2019-03-26T16:51:23.390Z,9.77
2019-03-26T16:53:54.289Z,6.77
2019-03-26T16:56:25.204Z,8.20
2019-03-26T16:58:56.112Z,6.57
2019-03-26T17:01:27.909Z,6.83
2019-03-26T17:03:58.809Z,7.33
2019-03-26T17:06:29.722Z,21.67
2019-03-26T17:09:00.642Z,39.23
2019-03-26T17:11:31.570Z,29.10
2019-03-26T17:14:02.468Z,12.97
2019-03-26T17:16:34.210Z,12.93
2019-03-26T17:19:05.121Z,10.63
2019-03-26T17:21:36.036Z,8.63
2019-03-26T17:24:06.928Z,14.87
2019-03-26T17:26:37.920Z,5.60
2019-03-26T17:29:08.814Z,4.97
2019-03-26T17:31:40.554Z,6.40
2019-03-26T17:34:11.515Z,15.03
2019-03-26T17:36:42.452Z,18.93
2019-03-26T17:39:13.353Z,22.50
2019-03-26T17:41:44.282Z,26.30
2019-03-26T17:44:15.189Z,9.40
2019-03-26T17:46:49.517Z,11.97
2019-03-26T17:49:20.428Z,19.03
2019-03-26T17:51:51.349Z,14.87
2019-03-26T17:54:22.258Z,16.70
2019-03-26T17:56:53.177Z,9.43
2019-03-26T17:59:24.072Z,18.70
2019-03-26T18:01:59.847Z,22.20
2019-03-26T18:04:31.871Z,29.40
2019-03-26T18:07:05.433Z,9.13
2019-03-26T18:09:35.486Z,11.70
2019-03-26T18:12:06.428Z,13.77
2019-03-26T18:14:37.331Z,18.57
2019-03-26T18:17:09.188Z,16.27
2019-03-26T18:19:40.158Z,31.27
2019-03-26T18:22:11.091Z,18.17
2019-03-26T18:27:31.876Z,34.03
2019-03-26T18:30:02.859Z,28.40
2019-03-26T18:32:34.790Z,17.67
2019-03-26T18:35:06.499Z,22.30
2019-03-26T18:37:37.452Z,29.20
2019-03-26T18:40:08.360Z,18.63
2019-03-26T18:42:44.358Z,21.13
2019-03-26T18:45:13.075Z,19.57
2019-03-26T18:47:46.566Z,19.83
2019-03-26T18:50:17.669Z,22.70
2019-03-26T18:52:48.622Z,22.17
2019-03-26T18:55:19.534Z,29.93
2019-03-26T18:57:50.475Z,37.20
2019-03-26T19:00:36.155Z,35.73
2019-03-26T19:03:09.110Z,33.43
2019-03-26T19:05:40.030Z,29.47
2019-03-26T19:08:10.965Z,34.57
2019-03-26T19:10:41.879Z,32.37
2019-03-26T19:13:19.261Z,41.70
2019-03-26T19:15:45.416Z,38.93
2019-03-26T19:18:17.204Z,38.30
2019-03-26T19:21:01.026Z,30.20
2019-03-26T19:23:20.738Z,28.97
2019-03-26T19:25:51.636Z,27.73
2019-03-26T19:28:23.416Z,51.63
2019-03-26T19:30:54.344Z,119.63
2019-03-26T19:33:25.393Z,93.57
2019-03-26T19:35:56.293Z,67.67
2019-03-26T19:38:27.235Z,89.87
2019-03-26T19:40:58.152Z,59.83
2019-03-26T19:43:29.088Z,92.70
2019-03-26T19:46:00.018Z,69.97
2019-03-26T19:48:33.374Z,51.23
2019-03-26T19:51:04.299Z,53.23
2019-03-26T19:53:35.232Z,50.67
2019-03-26T19:56:06.162Z,58.90
2019-03-26T19:58:37.099Z,56.23
2019-03-26T20:01:08.079Z,67.47
2019-03-26T20:03:39.180Z,61.43
2019-03-26T20:06:13.678Z,65.87
2019-03-26T20:08:46.214Z,74.73
2019-03-26T20:11:17.128Z,79.20
2019-03-26T20:13:48.064Z,79.17
2019-03-26T20:16:18.987Z,79.80
2019-03-26T20:18:54.802Z,71.33
2019-03-26T20:21:25.717Z,66.37
2019-03-26T20:23:56.720Z,62.37
2019-03-26T20:26:27.708Z,56.23
2019-03-26T20:28:58.646Z,60.63
2019-03-26T20:31:29.568Z,60.47
2019-03-26T20:34:02.376Z,60.73
2019-03-26T20:36:33.348Z,55.23
2019-03-26T20:39:06.172Z,50.17
2019-03-26T20:41:37.072Z,56.57
2019-03-26T20:44:08.037Z,56.80
2019-03-26T20:46:38.948Z,65.23
2019-03-26T20:49:10.771Z,77.37
2019-03-26T20:51:41.698Z,84.73
2019-03-26T20:54:12.735Z,90.73
2019-03-26T20:56:43.642Z,84.20
2019-03-26T20:59:14.774Z,89.50
2019-03-26T21:01:45.742Z,86.83
2019-03-26T21:04:19.262Z,77.03
2019-03-26T21:06:50.166Z,71.80
2019-03-26T21:09:21.114Z,82.43
2019-03-26T21:11:52.018Z,86.47
2019-03-26T21:14:22.965Z,92.27
2019-03-26T21:16:53.857Z,89.23
2019-03-26T21:19:25.718Z,76.97
2019-03-26T21:21:56.622Z,80.13
2019-03-26T21:24:27.630Z,85.00
2019-03-26T21:26:58.614Z,82.03
2019-03-26T21:29:30.394Z,82.67
2019-03-26T21:32:01.299Z,101.10
2019-03-26T21:34:33.506Z,113.57
2019-03-26T21:37:04.386Z,94.10
2019-03-26T21:39:35.363Z,89.63
2019-03-26T21:42:06.239Z,98.60
2019-03-26T21:44:37.246Z,90.53
2019-03-26T21:47:08.158Z,90.40
2019-03-26T21:49:40.875Z,94.83
2019-03-26T21:52:11.790Z,95.80
2019-03-26T21:54:46.906Z,108.60
2019-03-26T21:57:17.872Z,111.37
2019-03-26T21:59:48.808Z,115.67
2019-03-26T22:02:19.745Z,130.40
2019-03-26T22:04:51.726Z,140.20
2019-03-26T22:07:22.646Z,132.00
2019-03-26T22:09:53.592Z,116.27
2019-03-26T22:12:24.496Z,115.50
2019-03-26T22:14:55.440Z,119.47
2019-03-26T22:17:26.348Z,113.23
2019-03-26T22:19:58.096Z,105.23
2019-03-26T22:22:29.018Z,113.50
2019-03-26T22:24:59.968Z,102.27
2019-03-26T22:27:30.862Z,96.53
2019-03-26T22:30:01.905Z,102.70
2019-03-26T22:32:32.818Z,94.53
2019-03-26T22:35:04.962Z,82.13
2019-03-26T22:37:35.868Z,88.77
2019-03-26T22:40:08.306Z,80.27
2019-03-26T22:42:39.210Z,74.30
2019-03-26T22:45:18.940Z,77.03
2019-03-26T22:47:45.882Z,79.73
2019-03-26T22:50:18.040Z,72.90
2019-03-26T22:52:48.942Z,71.77
2019-03-26T22:55:19.894Z,74.47
2019-03-26T22:57:50.794Z,84.90
2019-03-26T23:00:22.229Z,83.03
2019-03-26T23:02:53.194Z,78.87
2019-03-26T23:05:24.310Z,66.67
2019-03-26T23:07:55.284Z,67.60
2019-03-26T23:10:26.222Z,58.43
2019-03-26T23:12:57.138Z,56.80
2019-03-26T23:15:28.562Z,59.37
2019-03-26T23:17:59.466Z,61.70
2019-03-26T23:20:30.416Z,69.03
2019-03-26T23:23:01.326Z,69.27
2019-03-26T23:25:32.264Z,59.27
2019-03-26T23:28:03.168Z,63.27
2019-03-26T23:30:34.108Z,68.27
2019-03-26T23:33:05.109Z,68.77
2019-03-26T23:35:36.866Z,59.73
2019-03-26T23:38:07.767Z,62.17
2019-03-26T23:40:38.702Z,56.33
2019-03-26T23:43:09.629Z,60.53
2019-03-26T23:45:40.563Z,55.97
2019-03-26T23:48:11.475Z,55.77
2019-03-26T23:50:44.005Z,59.53
2019-03-26T23:53:14.912Z,54.53
2019-03-26T23:55:45.853Z,57.13
2019-03-26T23:58:16.766Z,55.07
